Terminal Aerodrome Forecast
Issued by NWS Lake Charles, LA

Home | Current Version | Previous Version | Text Only | Print | Product List | Glossary On
Versions: 1 2 3 4 5 6 7 8 9 10 11 12 13 14 15
000
FTUS44 KLCH 040210 AAA
TAFARA
TAF AMD
KARA 040210Z 0402/0424 22006KT P6SM FEW040
     FM040600 18004KT P6SM SCT025 BKN035
     FM041300 22006KT P6SM VCSH SCT015 BKN040
     FM042100 19008KT 6SM -RA VCTS SCT028CB BKN040 OVC180=

USA.gov is the U.S. government's official web portal to all federal, state and local government web resources and services.